sensor_id;sensor_type;location;lat;lon;timestamp;P1;durP1;ratioP1;P2;durP2;ratioP2
26277;SDS011;14000;52.056;8.510;2023-07-29T00:01:11;7.60;;;2.50;;
26277;SDS011;14000;52.056;8.510;2023-07-29T00:03:36;8.87;;;2.07;;
26277;SDS011;14000;52.056;8.510;2023-07-29T00:06:02;6.73;;;2.10;;
26277;SDS011;14000;52.056;8.510;2023-07-29T00:08:28;6.27;;;2.23;;
26277;SDS011;14000;52.056;8.510;2023-07-29T00:10:53;7.97;;;2.27;;
26277;SDS011;14000;52.056;8.510;2023-07-29T00:13:19;7.20;;;2.50;;
26277;SDS011;14000;52.056;8.510;2023-07-29T00:15:45;7.33;;;2.40;;
26277;SDS011;14000;52.056;8.510;2023-07-29T00:18:10;6.53;;;2.23;;
26277;SDS011;14000;52.056;8.510;2023-07-29T00:20:36;7.20;;;2.37;;
26277;SDS011;14000;52.056;8.510;2023-07-29T00:23:01;7.40;;;2.60;;
26277;SDS011;14000;52.056;8.510;2023-07-29T00:25:27;7.20;;;2.60;;
26277;SDS011;14000;52.056;8.510;2023-07-29T00:27:55;7.50;;;2.60;;
26277;SDS011;14000;52.056;8.510;2023-07-29T00:30:21;7.73;;;2.87;;
26277;SDS011;14000;52.056;8.510;2023-07-29T00:32:47;7.27;;;2.80;;
26277;SDS011;14000;52.056;8.510;2023-07-29T00:35:12;6.93;;;2.47;;
26277;SDS011;14000;52.056;8.510;2023-07-29T00:37:38;8.67;;;3.17;;
26277;SDS011;14000;52.056;8.510;2023-07-29T00:40:07;7.73;;;2.73;;
26277;SDS011;14000;52.056;8.510;2023-07-29T00:42:41;8.30;;;2.60;;
26277;SDS011;14000;52.056;8.510;2023-07-29T00:45:08;14.30;;;3.00;;
26277;SDS011;14000;52.056;8.510;2023-07-29T00:47:34;7.23;;;2.73;;
26277;SDS011;14000;52.056;8.510;2023-07-29T00:50:00;7.73;;;2.80;;
26277;SDS011;14000;52.056;8.510;2023-07-29T00:52:26;8.97;;;3.20;;
26277;SDS011;14000;52.056;8.510;2023-07-29T00:54:51;7.00;;;2.80;;
26277;SDS011;14000;52.056;8.510;2023-07-29T00:57:17;8.03;;;2.67;;
26277;SDS011;14000;52.056;8.510;2023-07-29T00:59:44;7.60;;;2.70;;
26277;SDS011;14000;52.056;8.510;2023-07-29T01:02:09;7.23;;;2.97;;
26277;SDS011;14000;52.056;8.510;2023-07-29T01:04:35;9.07;;;2.80;;
26277;SDS011;14000;52.056;8.510;2023-07-29T01:09:55;7.80;;;2.60;;
26277;SDS011;14000;52.056;8.510;2023-07-29T01:15:29;7.53;;;3.10;;
26277;SDS011;14000;52.056;8.510;2023-07-29T01:18:05;7.37;;;2.90;;
26277;SDS011;14000;52.056;8.510;2023-07-29T01:20:34;9.70;;;3.00;;
26277;SDS011;14000;52.056;8.510;2023-07-29T01:23:03;8.63;;;2.93;;
26277;SDS011;14000;52.056;8.510;2023-07-29T01:25:29;8.63;;;3.20;;
26277;SDS011;14000;52.056;8.510;2023-07-29T01:27:55;8.10;;;2.93;;
26277;SDS011;14000;52.056;8.510;2023-07-29T01:30:22;8.73;;;3.37;;
26277;SDS011;14000;52.056;8.510;2023-07-29T01:33:04;8.07;;;3.20;;
26277;SDS011;14000;52.056;8.510;2023-07-29T01:38:09;7.67;;;2.90;;
26277;SDS011;14000;52.056;8.510;2023-07-29T01:40:41;7.20;;;3.00;;
26277;SDS011;14000;52.056;8.510;2023-07-29T01:43:08;7.93;;;3.23;;
26277;SDS011;14000;52.056;8.510;2023-07-29T01:45:35;7.67;;;3.30;;
26277;SDS011;14000;52.056;8.510;2023-07-29T01:48:04;7.50;;;3.20;;
26277;SDS011;14000;52.056;8.510;2023-07-29T01:50:30;11.43;;;3.50;;
26277;SDS011;14000;52.056;8.510;2023-07-29T01:52:57;7.20;;;3.10;;
26277;SDS011;14000;52.056;8.510;2023-07-29T01:55:23;8.07;;;3.20;;
26277;SDS011;14000;52.056;8.510;2023-07-29T01:57:48;8.27;;;3.20;;
26277;SDS011;14000;52.056;8.510;2023-07-29T02:00:15;9.17;;;3.33;;
26277;SDS011;14000;52.056;8.510;2023-07-29T02:02:41;8.43;;;3.67;;
26277;SDS011;14000;52.056;8.510;2023-07-29T02:05:06;7.67;;;3.33;;
26277;SDS011;14000;52.056;8.510;2023-07-29T02:07:32;8.83;;;3.80;;
26277;SDS011;14000;52.056;8.510;2023-07-29T02:09:58;9.73;;;3.93;;
26277;SDS011;14000;52.056;8.510;2023-07-29T02:12:23;9.00;;;3.73;;
26277;SDS011;14000;52.056;8.510;2023-07-29T02:14:49;10.93;;;4.10;;
26277;SDS011;14000;52.056;8.510;2023-07-29T02:17:15;8.70;;;3.80;;
26277;SDS011;14000;52.056;8.510;2023-07-29T02:19:40;7.97;;;3.80;;
26277;SDS011;14000;52.056;8.510;2023-07-29T02:22:06;8.87;;;3.83;;
26277;SDS011;14000;52.056;8.510;2023-07-29T02:24:31;8.53;;;4.10;;
26277;SDS011;14000;52.056;8.510;2023-07-29T02:26:57;9.80;;;3.60;;
26277;SDS011;14000;52.056;8.510;2023-07-29T02:29:23;8.17;;;3.67;;
26277;SDS011;14000;52.056;8.510;2023-07-29T02:31:50;8.30;;;3.93;;
26277;SDS011;14000;52.056;8.510;2023-07-29T02:34:15;8.43;;;4.47;;
26277;SDS011;14000;52.056;8.510;2023-07-29T02:36:41;8.83;;;4.27;;
26277;SDS011;14000;52.056;8.510;2023-07-29T02:39:06;8.67;;;4.50;;
26277;SDS011;14000;52.056;8.510;2023-07-29T02:41:32;9.80;;;4.67;;
26277;SDS011;14000;52.056;8.510;2023-07-29T02:43:58;9.20;;;4.40;;
26277;SDS011;14000;52.056;8.510;2023-07-29T02:46:23;9.17;;;4.80;;
26277;SDS011;14000;52.056;8.510;2023-07-29T02:48:50;9.87;;;4.40;;
26277;SDS011;14000;52.056;8.510;2023-07-29T02:51:16;8.40;;;4.53;;
26277;SDS011;14000;52.056;8.510;2023-07-29T02:53:41;9.77;;;5.47;;
26277;SDS011;14000;52.056;8.510;2023-07-29T02:56:07;9.33;;;5.00;;
26277;SDS011;14000;52.056;8.510;2023-07-29T02:58:35;9.70;;;5.03;;
26277;SDS011;14000;52.056;8.510;2023-07-29T03:01:02;8.67;;;4.10;;
26277;SDS011;14000;52.056;8.510;2023-07-29T03:03:31;9.97;;;5.87;;
26277;SDS011;14000;52.056;8.510;2023-07-29T03:06:01;10.63;;;4.53;;
26277;SDS011;14000;52.056;8.510;2023-07-29T03:08:31;10.03;;;4.67;;
26277;SDS011;14000;52.056;8.510;2023-07-29T03:10:57;8.53;;;4.47;;
26277;SDS011;14000;52.056;8.510;2023-07-29T03:13:23;8.13;;;4.13;;
26277;SDS011;14000;52.056;8.510;2023-07-29T03:15:49;8.40;;;4.10;;
26277;SDS011;14000;52.056;8.510;2023-07-29T03:18:15;8.40;;;4.00;;
26277;SDS011;14000;52.056;8.510;2023-07-29T03:20:41;9.37;;;4.60;;
26277;SDS011;14000;52.056;8.510;2023-07-29T03:23:06;7.67;;;3.60;;
26277;SDS011;14000;52.056;8.510;2023-07-29T03:25:32;8.00;;;3.80;;
26277;SDS011;14000;52.056;8.510;2023-07-29T03:27:58;8.30;;;3.90;;
26277;SDS011;14000;52.056;8.510;2023-07-29T03:30:24;7.50;;;3.57;;
26277;SDS011;14000;52.056;8.510;2023-07-29T03:32:49;7.37;;;3.23;;
26277;SDS011;14000;52.056;8.510;2023-07-29T03:35:15;7.70;;;3.90;;
26277;SDS011;14000;52.056;8.510;2023-07-29T03:37:41;7.83;;;3.20;;
26277;SDS011;14000;52.056;8.510;2023-07-29T03:40:07;8.37;;;3.23;;
26277;SDS011;14000;52.056;8.510;2023-07-29T03:42:34;9.37;;;3.87;;
26277;SDS011;14000;52.056;8.510;2023-07-29T03:45:00;7.87;;;3.30;;
26277;SDS011;14000;52.056;8.510;2023-07-29T03:47:26;8.57;;;4.10;;
26277;SDS011;14000;52.056;8.510;2023-07-29T03:49:52;7.60;;;2.93;;
26277;SDS011;14000;52.056;8.510;2023-07-29T03:52:17;8.80;;;2.87;;
26277;SDS011;14000;52.056;8.510;2023-07-29T03:54:43;7.17;;;2.90;;
26277;SDS011;14000;52.056;8.510;2023-07-29T03:57:09;6.90;;;2.90;;
26277;SDS011;14000;52.056;8.510;2023-07-29T03:59:34;9.30;;;2.90;;
26277;SDS011;14000;52.056;8.510;2023-07-29T04:02:00;8.43;;;3.00;;
26277;SDS011;14000;52.056;8.510;2023-07-29T04:04:25;7.00;;;2.60;;
26277;SDS011;14000;52.056;8.510;2023-07-29T04:06:51;7.73;;;2.93;;
26277;SDS011;14000;52.056;8.510;2023-07-29T04:09:17;8.10;;;3.10;;
26277;SDS011;14000;52.056;8.510;2023-07-29T04:11:42;7.80;;;3.03;;
26277;SDS011;14000;52.056;8.510;2023-07-29T04:14:08;7.80;;;3.37;;
26277;SDS011;14000;52.056;8.510;2023-07-29T04:16:34;8.57;;;2.83;;
26277;SDS011;14000;52.056;8.510;2023-07-29T04:18:59;7.97;;;2.90;;
26277;SDS011;14000;52.056;8.510;2023-07-29T04:21:25;8.90;;;3.10;;
26277;SDS011;14000;52.056;8.510;2023-07-29T04:23:51;7.63;;;3.23;;
26277;SDS011;14000;52.056;8.510;2023-07-29T04:26:16;8.63;;;3.20;;
26277;SDS011;14000;52.056;8.510;2023-07-29T04:28:42;8.47;;;2.90;;
26277;SDS011;14000;52.056;8.510;2023-07-29T04:31:08;7.83;;;2.50;;
26277;SDS011;14000;52.056;8.510;2023-07-29T04:33:33;7.77;;;2.77;;
26277;SDS011;14000;52.056;8.510;2023-07-29T04:35:59;6.80;;;2.80;;
26277;SDS011;14000;52.056;8.510;2023-07-29T04:38:30;8.17;;;2.80;;
26277;SDS011;14000;52.056;8.510;2023-07-29T04:41:00;7.10;;;2.70;;
26277;SDS011;14000;52.056;8.510;2023-07-29T04:43:30;6.73;;;2.60;;
26277;SDS011;14000;52.056;8.510;2023-07-29T04:45:57;7.10;;;2.70;;
26277;SDS011;14000;52.056;8.510;2023-07-29T04:48:22;7.37;;;2.70;;
26277;SDS011;14000;52.056;8.510;2023-07-29T04:50:48;7.30;;;2.73;;
26277;SDS011;14000;52.056;8.510;2023-07-29T04:53:14;7.20;;;2.70;;
26277;SDS011;14000;52.056;8.510;2023-07-29T04:55:42;8.57;;;2.63;;
26277;SDS011;14000;52.056;8.510;2023-07-29T04:58:08;7.00;;;2.70;;
26277;SDS011;14000;52.056;8.510;2023-07-29T05:00:34;6.00;;;2.27;;
26277;SDS011;14000;52.056;8.510;2023-07-29T05:02:59;7.47;;;2.80;;
26277;SDS011;14000;52.056;8.510;2023-07-29T05:05:26;6.67;;;2.47;;
26277;SDS011;14000;52.056;8.510;2023-07-29T05:07:52;6.90;;;2.27;;
26277;SDS011;14000;52.056;8.510;2023-07-29T05:10:17;6.57;;;2.60;;
26277;SDS011;14000;52.056;8.510;2023-07-29T05:12:43;6.47;;;2.37;;
26277;SDS011;14000;52.056;8.510;2023-07-29T05:15:09;6.60;;;2.40;;
26277;SDS011;14000;52.056;8.510;2023-07-29T05:17:34;7.17;;;2.27;;
26277;SDS011;14000;52.056;8.510;2023-07-29T05:20:00;8.20;;;2.30;;
26277;SDS011;14000;52.056;8.510;2023-07-29T05:22:26;6.50;;;2.60;;
26277;SDS011;14000;52.056;8.510;2023-07-29T05:24:51;6.93;;;2.60;;
26277;SDS011;14000;52.056;8.510;2023-07-29T05:27:17;7.80;;;2.53;;
26277;SDS011;14000;52.056;8.510;2023-07-29T05:29:42;6.67;;;2.43;;
26277;SDS011;14000;52.056;8.510;2023-07-29T05:32:08;8.03;;;2.50;;
26277;SDS011;14000;52.056;8.510;2023-07-29T05:34:33;8.67;;;2.53;;
26277;SDS011;14000;52.056;8.510;2023-07-29T05:36:59;8.87;;;2.70;;
26277;SDS011;14000;52.056;8.510;2023-07-29T05:39:24;8.23;;;2.70;;
26277;SDS011;14000;52.056;8.510;2023-07-29T05:41:50;6.70;;;2.60;;
26277;SDS011;14000;52.056;8.510;2023-07-29T05:44:16;6.70;;;2.40;;
26277;SDS011;14000;52.056;8.510;2023-07-29T05:46:41;7.33;;;2.80;;
26277;SDS011;14000;52.056;8.510;2023-07-29T05:49:07;7.53;;;2.50;;
26277;SDS011;14000;52.056;8.510;2023-07-29T05:51:32;10.00;;;2.90;;
26277;SDS011;14000;52.056;8.510;2023-07-29T05:53:58;7.00;;;2.50;;
26277;SDS011;14000;52.056;8.510;2023-07-29T05:56:24;8.90;;;2.90;;
26277;SDS011;14000;52.056;8.510;2023-07-29T05:58:49;8.73;;;2.80;;
26277;SDS011;14000;52.056;8.510;2023-07-29T06:01:15;9.00;;;3.60;;
26277;SDS011;14000;52.056;8.510;2023-07-29T06:03:41;8.17;;;2.80;;
26277;SDS011;14000;52.056;8.510;2023-07-29T06:06:06;7.40;;;3.40;;
26277;SDS011;14000;52.056;8.510;2023-07-29T06:08:32;7.47;;;3.13;;
26277;SDS011;14000;52.056;8.510;2023-07-29T06:10:59;7.37;;;3.10;;
26277;SDS011;14000;52.056;8.510;2023-07-29T06:13:25;7.23;;;2.93;;
26277;SDS011;14000;52.056;8.510;2023-07-29T06:15:51;8.80;;;3.27;;
26277;SDS011;14000;52.056;8.510;2023-07-29T06:18:16;7.80;;;2.93;;
26277;SDS011;14000;52.056;8.510;2023-07-29T06:20:42;7.50;;;2.97;;
26277;SDS011;14000;52.056;8.510;2023-07-29T06:23:08;9.07;;;3.00;;
26277;SDS011;14000;52.056;8.510;2023-07-29T06:25:33;6.90;;;2.97;;
26277;SDS011;14000;52.056;8.510;2023-07-29T06:27:59;8.47;;;3.67;;
26277;SDS011;14000;52.056;8.510;2023-07-29T06:30:24;7.33;;;3.10;;
26277;SDS011;14000;52.056;8.510;2023-07-29T06:32:50;7.70;;;2.83;;
26277;SDS011;14000;52.056;8.510;2023-07-29T06:35:16;6.87;;;2.70;;
26277;SDS011;14000;52.056;8.510;2023-07-29T06:37:42;9.13;;;3.67;;
26277;SDS011;14000;52.056;8.510;2023-07-29T06:40:07;6.80;;;2.90;;
26277;SDS011;14000;52.056;8.510;2023-07-29T06:42:33;8.90;;;3.97;;
26277;SDS011;14000;52.056;8.510;2023-07-29T06:44:59;10.17;;;5.03;;
26277;SDS011;14000;52.056;8.510;2023-07-29T06:47:24;8.40;;;4.60;;
26277;SDS011;14000;52.056;8.510;2023-07-29T06:49:50;9.40;;;5.00;;
26277;SDS011;14000;52.056;8.510;2023-07-29T06:52:15;13.07;;;6.10;;
26277;SDS011;14000;52.056;8.510;2023-07-29T06:54:41;11.33;;;5.73;;
26277;SDS011;14000;52.056;8.510;2023-07-29T06:57:07;11.60;;;6.17;;
26277;SDS011;14000;52.056;8.510;2023-07-29T06:59:33;14.57;;;8.33;;
26277;SDS011;14000;52.056;8.510;2023-07-29T07:01:58;14.63;;;8.60;;
26277;SDS011;14000;52.056;8.510;2023-07-29T07:04:25;14.10;;;8.37;;
26277;SDS011;14000;52.056;8.510;2023-07-29T07:06:50;18.43;;;11.07;;
26277;SDS011;14000;52.056;8.510;2023-07-29T07:09:16;19.30;;;13.40;;
26277;SDS011;14000;52.056;8.510;2023-07-29T07:11:42;20.50;;;14.43;;
26277;SDS011;14000;52.056;8.510;2023-07-29T07:14:07;25.63;;;17.97;;
26277;SDS011;14000;52.056;8.510;2023-07-29T07:16:33;23.07;;;16.83;;
26277;SDS011;14000;52.056;8.510;2023-07-29T07:19:00;23.93;;;16.63;;
26277;SDS011;14000;52.056;8.510;2023-07-29T07:21:26;24.20;;;17.73;;
26277;SDS011;14000;52.056;8.510;2023-07-29T07:23:51;20.03;;;15.00;;
26277;SDS011;14000;52.056;8.510;2023-07-29T07:26:17;18.00;;;13.13;;
26277;SDS011;14000;52.056;8.510;2023-07-29T07:28:42;19.40;;;14.10;;
26277;SDS011;14000;52.056;8.510;2023-07-29T07:31:08;15.80;;;12.10;;
26277;SDS011;14000;52.056;8.510;2023-07-29T07:33:34;16.93;;;11.63;;
26277;SDS011;14000;52.056;8.510;2023-07-29T07:35:59;17.67;;;13.00;;
26277;SDS011;14000;52.056;8.510;2023-07-29T07:38:25;16.97;;;12.50;;
26277;SDS011;14000;52.056;8.510;2023-07-29T07:40:54;15.90;;;11.57;;
26277;SDS011;14000;52.056;8.510;2023-07-29T07:43:20;18.07;;;11.90;;
26277;SDS011;14000;52.056;8.510;2023-07-29T07:45:46;15.60;;;11.37;;
26277;SDS011;14000;52.056;8.510;2023-07-29T07:48:12;14.00;;;9.83;;
26277;SDS011;14000;52.056;8.510;2023-07-29T07:50:38;12.93;;;9.80;;
26277;SDS011;14000;52.056;8.510;2023-07-29T07:53:04;14.57;;;9.30;;
26277;SDS011;14000;52.056;8.510;2023-07-29T07:55:30;12.87;;;8.57;;
26277;SDS011;14000;52.056;8.510;2023-07-29T07:57:55;14.03;;;7.60;;
26277;SDS011;14000;52.056;8.510;2023-07-29T08:00:21;13.40;;;7.47;;
26277;SDS011;14000;52.056;8.510;2023-07-29T08:02:46;10.63;;;6.60;;
26277;SDS011;14000;52.056;8.510;2023-07-29T08:05:12;13.13;;;6.10;;
26277;SDS011;14000;52.056;8.510;2023-07-29T08:07:38;10.80;;;5.37;;
26277;SDS011;14000;52.056;8.510;2023-07-29T08:10:03;9.83;;;4.20;;
26277;SDS011;14000;52.056;8.510;2023-07-29T08:12:29;9.03;;;4.00;;
26277;SDS011;14000;52.056;8.510;2023-07-29T08:14:55;9.00;;;3.47;;
26277;SDS011;14000;52.056;8.510;2023-07-29T08:17:20;7.77;;;3.20;;
26277;SDS011;14000;52.056;8.510;2023-07-29T08:19:46;7.83;;;3.00;;
26277;SDS011;14000;52.056;8.510;2023-07-29T08:22:11;8.80;;;2.70;;
26277;SDS011;14000;52.056;8.510;2023-07-29T08:24:37;7.20;;;2.50;;
26277;SDS011;14000;52.056;8.510;2023-07-29T08:27:03;8.80;;;2.90;;
26277;SDS011;14000;52.056;8.510;2023-07-29T08:29:28;8.10;;;2.50;;
26277;SDS011;14000;52.056;8.510;2023-07-29T08:31:54;7.13;;;2.50;;
26277;SDS011;14000;52.056;8.510;2023-07-29T08:34:20;11.83;;;3.53;;
26277;SDS011;14000;52.056;8.510;2023-07-29T08:36:46;10.73;;;4.90;;
26277;SDS011;14000;52.056;8.510;2023-07-29T08:39:11;6.60;;;2.30;;
26277;SDS011;14000;52.056;8.510;2023-07-29T08:41:38;7.80;;;2.40;;
26277;SDS011;14000;52.056;8.510;2023-07-29T08:44:20;6.67;;;2.40;;
26277;SDS011;14000;52.056;8.510;2023-07-29T08:46:48;9.67;;;2.43;;
26277;SDS011;14000;52.056;8.510;2023-07-29T08:49:15;7.07;;;2.30;;
26277;SDS011;14000;52.056;8.510;2023-07-29T08:51:47;7.83;;;2.60;;
26277;SDS011;14000;52.056;8.510;2023-07-29T08:54:14;6.70;;;2.47;;
26277;SDS011;14000;52.056;8.510;2023-07-29T08:56:41;6.77;;;2.30;;
26277;SDS011;14000;52.056;8.510;2023-07-29T08:59:07;5.50;;;1.77;;
26277;SDS011;14000;52.056;8.510;2023-07-29T09:01:34;5.27;;;1.60;;
26277;SDS011;14000;52.056;8.510;2023-07-29T09:03:59;7.40;;;1.80;;
26277;SDS011;14000;52.056;8.510;2023-07-29T09:06:25;6.10;;;1.60;;
26277;SDS011;14000;52.056;8.510;2023-07-29T09:08:53;7.77;;;1.80;;
26277;SDS011;14000;52.056;8.510;2023-07-29T09:11:21;7.50;;;2.00;;
26277;SDS011;14000;52.056;8.510;2023-07-29T09:13:47;6.60;;;1.90;;
26277;SDS011;14000;52.056;8.510;2023-07-29T09:16:13;7.37;;;1.63;;
26277;SDS011;14000;52.056;8.510;2023-07-29T09:18:39;6.10;;;1.87;;
26277;SDS011;14000;52.056;8.510;2023-07-29T09:21:05;6.00;;;1.80;;
26277;SDS011;14000;52.056;8.510;2023-07-29T09:23:43;6.93;;;1.70;;
26277;SDS011;14000;52.056;8.510;2023-07-29T09:26:09;6.17;;;1.60;;
26277;SDS011;14000;52.056;8.510;2023-07-29T09:28:39;5.13;;;1.60;;
26277;SDS011;14000;52.056;8.510;2023-07-29T09:31:05;5.77;;;1.80;;
26277;SDS011;14000;52.056;8.510;2023-07-29T09:33:34;4.13;;;1.30;;
26277;SDS011;14000;52.056;8.510;2023-07-29T09:36:02;4.00;;;1.30;;
26277;SDS011;14000;52.056;8.510;2023-07-29T09:38:34;6.60;;;1.57;;
26277;SDS011;14000;52.056;8.510;2023-07-29T09:41:00;4.63;;;1.50;;
26277;SDS011;14000;52.056;8.510;2023-07-29T09:43:30;7.17;;;2.33;;
26277;SDS011;14000;52.056;8.510;2023-07-29T09:46:00;8.70;;;2.57;;
26277;SDS011;14000;52.056;8.510;2023-07-29T09:48:33;6.67;;;1.50;;
26277;SDS011;14000;52.056;8.510;2023-07-29T09:51:12;4.20;;;1.20;;
26277;SDS011;14000;52.056;8.510;2023-07-29T09:53:44;3.47;;;1.10;;
26277;SDS011;14000;52.056;8.510;2023-07-29T09:56:11;6.50;;;1.47;;
26277;SDS011;14000;52.056;8.510;2023-07-29T09:58:38;3.43;;;1.10;;
26277;SDS011;14000;52.056;8.510;2023-07-29T10:01:05;3.47;;;1.20;;
26277;SDS011;14000;52.056;8.510;2023-07-29T10:03:31;4.40;;;1.20;;
26277;SDS011;14000;52.056;8.510;2023-07-29T10:05:59;4.43;;;1.10;;
26277;SDS011;14000;52.056;8.510;2023-07-29T10:08:27;6.80;;;1.50;;
26277;SDS011;14000;52.056;8.510;2023-07-29T10:10:55;6.43;;;1.90;;
26277;SDS011;14000;52.056;8.510;2023-07-29T10:13:22;4.80;;;1.20;;
26277;SDS011;14000;52.056;8.510;2023-07-29T10:15:50;5.57;;;1.30;;
26277;SDS011;14000;52.056;8.510;2023-07-29T10:18:18;3.93;;;1.20;;
26277;SDS011;14000;52.056;8.510;2023-07-29T10:20:44;4.20;;;1.27;;
26277;SDS011;14000;52.056;8.510;2023-07-29T10:23:11;4.13;;;1.37;;
26277;SDS011;14000;52.056;8.510;2023-07-29T10:25:40;5.43;;;1.60;;
26277;SDS011;14000;52.056;8.510;2023-07-29T10:28:12;5.53;;;1.50;;
26277;SDS011;14000;52.056;8.510;2023-07-29T10:30:40;4.70;;;1.30;;
26277;SDS011;14000;52.056;8.510;2023-07-29T10:33:06;4.93;;;1.30;;
26277;SDS011;14000;52.056;8.510;2023-07-29T10:35:32;4.43;;;1.23;;
26277;SDS011;14000;52.056;8.510;2023-07-29T10:37:59;6.13;;;1.20;;
26277;SDS011;14000;52.056;8.510;2023-07-29T10:40:26;5.33;;;1.13;;
26277;SDS011;14000;52.056;8.510;2023-07-29T10:43:11;4.10;;;1.20;;
26277;SDS011;14000;52.056;8.510;2023-07-29T10:45:38;4.83;;;1.40;;
26277;SDS011;14000;52.056;8.510;2023-07-29T10:48:06;6.20;;;1.87;;
26277;SDS011;14000;52.056;8.510;2023-07-29T10:50:35;6.93;;;1.20;;
26277;SDS011;14000;52.056;8.510;2023-07-29T10:53:04;3.47;;;1.10;;
26277;SDS011;14000;52.056;8.510;2023-07-29T10:55:33;4.63;;;0.97;;
26277;SDS011;14000;52.056;8.510;2023-07-29T11:00:44;4.03;;;1.07;;
26277;SDS011;14000;52.056;8.510;2023-07-29T11:03:11;3.77;;;1.20;;
26277;SDS011;14000;52.056;8.510;2023-07-29T11:05:51;2.47;;;0.97;;
26277;SDS011;14000;52.056;8.510;2023-07-29T11:08:19;4.40;;;1.10;;
26277;SDS011;14000;52.056;8.510;2023-07-29T11:13:43;3.57;;;1.10;;
26277;SDS011;14000;52.056;8.510;2023-07-29T11:16:09;5.17;;;1.20;;
26277;SDS011;14000;52.056;8.510;2023-07-29T11:18:35;3.17;;;0.90;;
26277;SDS011;14000;52.056;8.510;2023-07-29T11:21:02;3.83;;;0.90;;
26277;SDS011;14000;52.056;8.510;2023-07-29T11:23:32;3.20;;;1.00;;
26277;SDS011;14000;52.056;8.510;2023-07-29T11:25:59;3.80;;;1.00;;
26277;SDS011;14000;52.056;8.510;2023-07-29T11:28:26;3.47;;;0.83;;
26277;SDS011;14000;52.056;8.510;2023-07-29T11:30:53;3.37;;;1.03;;
26277;SDS011;14000;52.056;8.510;2023-07-29T11:33:20;3.17;;;1.00;;
26277;SDS011;14000;52.056;8.510;2023-07-29T11:35:48;3.97;;;1.07;;
26277;SDS011;14000;52.056;8.510;2023-07-29T11:38:14;4.37;;;1.17;;
26277;SDS011;14000;52.056;8.510;2023-07-29T11:40:41;4.27;;;1.00;;
26277;SDS011;14000;52.056;8.510;2023-07-29T11:43:07;5.03;;;1.00;;
26277;SDS011;14000;52.056;8.510;2023-07-29T11:45:33;3.53;;;1.00;;
26277;SDS011;14000;52.056;8.510;2023-07-29T11:47:58;3.53;;;0.90;;
26277;SDS011;14000;52.056;8.510;2023-07-29T11:50:26;3.03;;;1.00;;
26277;SDS011;14000;52.056;8.510;2023-07-29T11:52:52;3.27;;;1.00;;
26277;SDS011;14000;52.056;8.510;2023-07-29T11:55:17;3.57;;;1.00;;
26277;SDS011;14000;52.056;8.510;2023-07-29T11:57:44;4.53;;;1.20;;
26277;SDS011;14000;52.056;8.510;2023-07-29T12:00:16;6.23;;;1.70;;
26277;SDS011;14000;52.056;8.510;2023-07-29T12:02:43;5.90;;;1.80;;
26277;SDS011;14000;52.056;8.510;2023-07-29T12:05:10;5.20;;;1.30;;
26277;SDS011;14000;52.056;8.510;2023-07-29T12:07:38;5.33;;;1.40;;
26277;SDS011;14000;52.056;8.510;2023-07-29T12:10:05;3.77;;;1.10;;
26277;SDS011;14000;52.056;8.510;2023-07-29T12:12:31;4.53;;;1.30;;
26277;SDS011;14000;52.056;8.510;2023-07-29T12:14:56;5.20;;;1.20;;
26277;SDS011;14000;52.056;8.510;2023-07-29T12:17:22;3.63;;;0.93;;
26277;SDS011;14000;52.056;8.510;2023-07-29T12:19:48;3.20;;;1.10;;
26277;SDS011;14000;52.056;8.510;2023-07-29T12:22:17;3.80;;;1.27;;
26277;SDS011;14000;52.056;8.510;2023-07-29T12:24:43;4.97;;;1.20;;
26277;SDS011;14000;52.056;8.510;2023-07-29T12:27:13;5.37;;;1.27;;
26277;SDS011;14000;52.056;8.510;2023-07-29T12:29:40;5.40;;;1.33;;
26277;SDS011;14000;52.056;8.510;2023-07-29T12:32:07;7.00;;;1.33;;
26277;SDS011;14000;52.056;8.510;2023-07-29T12:34:34;6.20;;;1.40;;
26277;SDS011;14000;52.056;8.510;2023-07-29T12:37:02;3.93;;;1.23;;
26277;SDS011;14000;52.056;8.510;2023-07-29T12:39:30;5.10;;;1.50;;
26277;SDS011;14000;52.056;8.510;2023-07-29T12:41:57;4.53;;;1.40;;
26277;SDS011;14000;52.056;8.510;2023-07-29T12:44:24;8.97;;;1.60;;
26277;SDS011;14000;52.056;8.510;2023-07-29T12:46:52;6.83;;;1.60;;
26277;SDS011;14000;52.056;8.510;2023-07-29T12:49:17;5.50;;;1.40;;
26277;SDS011;14000;52.056;8.510;2023-07-29T12:51:43;4.30;;;1.30;;
26277;SDS011;14000;52.056;8.510;2023-07-29T12:54:09;5.20;;;1.20;;
26277;SDS011;14000;52.056;8.510;2023-07-29T12:56:34;4.40;;;1.30;;
26277;SDS011;14000;52.056;8.510;2023-07-29T12:59:00;5.80;;;1.20;;
26277;SDS011;14000;52.056;8.510;2023-07-29T13:01:27;5.50;;;1.20;;
26277;SDS011;14000;52.056;8.510;2023-07-29T13:03:53;4.47;;;1.27;;
26277;SDS011;14000;52.056;8.510;2023-07-29T13:06:20;6.80;;;1.37;;
26277;SDS011;14000;52.056;8.510;2023-07-29T13:08:46;4.33;;;1.30;;
26277;SDS011;14000;52.056;8.510;2023-07-29T13:11:11;4.57;;;1.10;;
26277;SDS011;14000;52.056;8.510;2023-07-29T13:13:37;4.90;;;1.40;;
26277;SDS011;14000;52.056;8.510;2023-07-29T13:16:03;5.27;;;1.07;;
26277;SDS011;14000;52.056;8.510;2023-07-29T13:18:29;5.07;;;1.27;;
26277;SDS011;14000;52.056;8.510;2023-07-29T13:20:55;3.30;;;1.03;;
26277;SDS011;14000;52.056;8.510;2023-07-29T13:23:20;5.93;;;1.27;;
26277;SDS011;14000;52.056;8.510;2023-07-29T13:25:47;4.67;;;1.17;;
26277;SDS011;14000;52.056;8.510;2023-07-29T13:28:12;3.67;;;1.13;;
26277;SDS011;14000;52.056;8.510;2023-07-29T13:30:39;4.17;;;1.30;;
26277;SDS011;14000;52.056;8.510;2023-07-29T13:33:05;4.90;;;1.30;;
26277;SDS011;14000;52.056;8.510;2023-07-29T13:35:32;4.90;;;1.30;;
26277;SDS011;14000;52.056;8.510;2023-07-29T13:37:57;4.17;;;1.30;;
26277;SDS011;14000;52.056;8.510;2023-07-29T13:40:23;4.90;;;1.30;;
26277;SDS011;14000;52.056;8.510;2023-07-29T13:42:48;5.40;;;1.20;;
26277;SDS011;14000;52.056;8.510;2023-07-29T13:45:14;5.50;;;1.20;;
26277;SDS011;14000;52.056;8.510;2023-07-29T13:47:40;4.07;;;1.10;;
26277;SDS011;14000;52.056;8.510;2023-07-29T13:50:05;3.33;;;1.17;;
26277;SDS011;14000;52.056;8.510;2023-07-29T13:52:34;5.03;;;1.47;;
26277;SDS011;14000;52.056;8.510;2023-07-29T13:55:00;4.50;;;1.40;;
26277;SDS011;14000;52.056;8.510;2023-07-29T13:57:26;3.97;;;1.20;;
26277;SDS011;14000;52.056;8.510;2023-07-29T13:59:51;4.00;;;1.20;;
26277;SDS011;14000;52.056;8.510;2023-07-29T14:02:17;4.30;;;1.20;;
26277;SDS011;14000;52.056;8.510;2023-07-29T14:04:43;3.90;;;1.10;;
26277;SDS011;14000;52.056;8.510;2023-07-29T14:07:09;4.27;;;1.20;;
26277;SDS011;14000;52.056;8.510;2023-07-29T14:09:34;3.83;;;1.10;;
26277;SDS011;14000;52.056;8.510;2023-07-29T14:12:00;4.20;;;1.30;;
26277;SDS011;14000;52.056;8.510;2023-07-29T14:14:25;5.23;;;1.30;;
26277;SDS011;14000;52.056;8.510;2023-07-29T14:16:51;3.87;;;1.23;;
26277;SDS011;14000;52.056;8.510;2023-07-29T14:19:17;5.07;;;1.30;;
26277;SDS011;14000;52.056;8.510;2023-07-29T14:21:43;6.37;;;1.40;;
26277;SDS011;14000;52.056;8.510;2023-07-29T14:24:08;5.97;;;1.40;;
26277;SDS011;14000;52.056;8.510;2023-07-29T14:26:34;5.07;;;1.50;;
26277;SDS011;14000;52.056;8.510;2023-07-29T14:28:59;6.10;;;1.67;;
26277;SDS011;14000;52.056;8.510;2023-07-29T14:31:25;6.43;;;1.40;;
26277;SDS011;14000;52.056;8.510;2023-07-29T14:33:50;4.23;;;1.30;;
26277;SDS011;14000;52.056;8.510;2023-07-29T14:36:16;5.57;;;1.40;;
26277;SDS011;14000;52.056;8.510;2023-07-29T14:38:42;5.73;;;1.50;;
26277;SDS011;14000;52.056;8.510;2023-07-29T14:41:07;5.03;;;1.40;;
26277;SDS011;14000;52.056;8.510;2023-07-29T14:43:33;6.47;;;1.60;;
26277;SDS011;14000;52.056;8.510;2023-07-29T14:46:00;6.87;;;1.70;;
26277;SDS011;14000;52.056;8.510;2023-07-29T14:48:25;9.23;;;2.70;;
26277;SDS011;14000;52.056;8.510;2023-07-29T14:50:51;9.40;;;3.03;;
26277;SDS011;14000;52.056;8.510;2023-07-29T14:53:17;6.20;;;1.57;;
26277;SDS011;14000;52.056;8.510;2023-07-29T14:55:43;6.83;;;1.63;;